createdAt,value
2024-05-09T00:00:40.710Z,7.37
2024-05-09T00:03:10.433Z,7.35
2024-05-09T00:05:41.152Z,7.31
2024-05-09T00:08:09.356Z,7.29
2024-05-09T00:10:38.850Z,7.25
2024-05-09T00:13:07.773Z,7.25
2024-05-09T00:15:35.968Z,7.25
2024-05-09T00:18:04.788Z,7.23
2024-05-09T00:20:38.016Z,7.19
2024-05-09T00:23:12.651Z,7.10
2024-05-09T00:25:42.854Z,7.06
2024-05-09T00:28:11.605Z,7.07
2024-05-09T00:30:38.810Z,7.08
2024-05-09T00:33:07.481Z,7.07
2024-05-09T00:35:36.138Z,7.05
2024-05-09T00:38:03.981Z,7.02
2024-05-09T00:40:40.064Z,7.00
2024-05-09T00:43:13.931Z,7.01
2024-05-09T00:45:42.870Z,7.00
2024-05-09T00:48:14.060Z,6.98
2024-05-09T00:50:44.211Z,6.93
2024-05-09T00:53:13.081Z,6.91
2024-05-09T00:55:40.991Z,6.84
2024-05-09T00:58:09.830Z,6.69
2024-05-09T01:00:40.042Z,6.66
2024-05-09T01:03:11.999Z,6.67
2024-05-09T01:05:41.789Z,6.64
2024-05-09T01:08:10.908Z,6.61
2024-05-09T01:10:39.491Z,6.58
2024-05-09T01:13:08.111Z,6.54
2024-05-09T01:15:35.755Z,6.53
2024-05-09T01:18:12.131Z,6.48
2024-05-09T01:20:44.105Z,6.49
2024-05-09T01:23:15.537Z,6.43
2024-05-09T01:25:45.956Z,6.41
2024-05-09T01:28:15.427Z,6.42
2024-05-09T01:30:42.690Z,6.42
2024-05-09T01:33:11.874Z,6.38
2024-05-09T01:35:42.005Z,6.36
2024-05-09T01:38:13.622Z,6.36
2024-05-09T01:40:41.406Z,6.33
2024-05-09T01:43:10.097Z,6.32
2024-05-09T01:45:38.904Z,6.29
2024-05-09T01:48:06.903Z,6.29
2024-05-09T01:50:39.436Z,6.26
2024-05-09T01:53:13.830Z,6.15
2024-05-09T01:55:41.743Z,6.13
2024-05-09T01:58:09.653Z,6.12
2024-05-09T02:00:40.903Z,6.00
2024-05-09T02:03:14.618Z,5.95
2024-05-09T02:05:50.568Z,5.92
2024-05-09T02:08:22.224Z,5.87
2024-05-09T02:10:50.657Z,5.88
2024-05-09T02:13:18.582Z,5.88
2024-05-09T02:15:46.463Z,5.84
2024-05-09T02:18:14.466Z,5.85
2024-05-09T02:20:43.197Z,5.79
2024-05-09T02:23:12.001Z,5.80
2024-05-09T02:25:39.962Z,5.79
2024-05-09T02:28:07.500Z,5.80
2024-05-09T02:30:39.924Z,5.80
2024-05-09T02:33:12.542Z,5.70
2024-05-09T02:35:43.338Z,5.66
2024-05-09T02:38:12.448Z,5.67
2024-05-09T02:40:41.094Z,5.63
2024-05-09T02:43:12.932Z,5.60
2024-05-09T02:45:40.950Z,5.60
2024-05-09T02:48:13.368Z,5.57
2024-05-09T02:50:42.180Z,5.56
2024-05-09T02:53:11.303Z,5.54
2024-05-09T02:55:39.058Z,5.51
2024-05-09T02:58:10.382Z,5.51
2024-05-09T03:00:41.137Z,5.50
2024-05-09T03:03:14.191Z,5.51
2024-05-09T03:05:44.155Z,5.49
2024-05-09T03:08:12.405Z,5.45
2024-05-09T03:10:40.070Z,5.43
2024-05-09T03:13:08.449Z,5.40
2024-05-09T03:15:35.920Z,5.27
2024-05-09T03:18:04.148Z,5.27
2024-05-09T03:20:34.858Z,5.29
2024-05-09T03:23:06.884Z,5.28
2024-05-09T03:25:34.555Z,5.24
2024-05-09T03:28:02.156Z,5.21
2024-05-09T03:30:36.649Z,5.22
2024-05-09T03:33:19.902Z,5.21
2024-05-09T03:35:48.952Z,5.16
2024-05-09T03:38:17.158Z,5.12
2024-05-09T03:40:46.232Z,5.11
2024-05-09T03:43:13.942Z,5.11
2024-05-09T03:45:42.547Z,5.16
2024-05-09T03:48:10.248Z,5.16
2024-05-09T03:50:38.171Z,5.18
2024-05-09T03:53:06.238Z,5.19
2024-05-09T03:55:34.412Z,5.21
2024-05-09T03:58:01.652Z,5.20
2024-05-09T04:00:36.851Z,5.18
2024-05-09T04:03:09.156Z,5.03
2024-05-09T04:05:43.870Z,4.98
2024-05-09T04:08:11.987Z,4.91
2024-05-09T04:10:39.357Z,4.95
2024-05-09T04:13:06.743Z,4.97
2024-05-09T04:15:34.063Z,5.01
2024-05-09T04:18:02.146Z,5.06
2024-05-09T04:20:37.541Z,5.07
2024-05-09T04:23:10.127Z,5.12
2024-05-09T04:25:37.758Z,5.15
2024-05-09T04:28:05.807Z,5.25
2024-05-09T04:30:38.374Z,5.32
2024-05-09T04:33:11.823Z,5.37
2024-05-09T04:35:45.118Z,5.45
2024-05-09T04:38:14.114Z,5.53
2024-05-09T04:40:41.960Z,5.52
2024-05-09T04:43:16.320Z,5.57
2024-05-09T04:45:43.675Z,5.60
2024-05-09T04:48:11.382Z,5.68
2024-05-09T04:50:39.880Z,5.72
2024-05-09T04:53:10.082Z,5.73
2024-05-09T04:55:39.789Z,5.75
2024-05-09T04:58:10.643Z,5.81
2024-05-09T05:00:39.910Z,5.87
2024-05-09T05:03:11.029Z,5.89
2024-05-09T05:05:41.867Z,5.99
2024-05-09T05:08:17.301Z,6.08
2024-05-09T05:10:46.582Z,6.18
2024-05-09T05:13:23.263Z,6.29
2024-05-09T05:15:58.514Z,6.39
2024-05-09T05:18:27.887Z,6.49
2024-05-09T05:20:56.257Z,6.57
2024-05-09T05:23:24.780Z,6.64
2024-05-09T05:25:53.470Z,6.76
2024-05-09T05:28:21.952Z,6.84
2024-05-09T05:30:49.526Z,6.89
2024-05-09T05:33:22.578Z,6.97
2024-05-09T05:35:50.361Z,7.03
2024-05-09T05:38:17.839Z,7.15
2024-05-09T05:40:45.259Z,7.27
2024-05-09T05:43:17.445Z,7.42
2024-05-09T05:45:45.327Z,7.51
2024-05-09T05:48:13.877Z,7.61
2024-05-09T05:50:41.701Z,7.71
2024-05-09T05:53:10.462Z,7.86
2024-05-09T05:55:39.489Z,7.97
2024-05-09T05:58:16.257Z,8.08
2024-05-09T06:00:43.532Z,8.22
2024-05-09T06:03:14.337Z,8.33
2024-05-09T06:05:46.215Z,8.47
2024-05-09T06:08:13.955Z,8.56
2024-05-09T06:10:42.376Z,8.64
2024-05-09T06:13:13.613Z,8.72
2024-05-09T06:15:41.775Z,8.79
2024-05-09T06:18:10.667Z,8.84
2024-05-09T06:20:40.375Z,8.93
2024-05-09T06:23:09.032Z,9.03
2024-05-09T06:25:36.934Z,9.12
2024-05-09T06:28:04.756Z,9.21
2024-05-09T06:30:40.459Z,9.32
2024-05-09T06:33:12.744Z,9.44
2024-05-09T06:35:42.410Z,9.53
2024-05-09T06:38:10.053Z,9.62
2024-05-09T06:40:42.769Z,9.70
2024-05-09T06:43:12.457Z,9.81
2024-05-09T06:45:39.968Z,9.93
2024-05-09T06:48:08.764Z,10.03
2024-05-09T06:50:38.334Z,10.09
2024-05-09T06:53:08.001Z,10.18
2024-05-09T06:55:36.277Z,10.31
2024-05-09T06:58:05.734Z,10.45
2024-05-09T07:00:38.915Z,10.57
2024-05-09T07:03:14.137Z,10.77
2024-05-09T07:05:44.072Z,10.95
2024-05-09T07:08:11.532Z,11.15
2024-05-09T07:10:38.911Z,11.35
2024-05-09T07:13:12.756Z,11.51
2024-05-09T07:15:40.936Z,11.70
2024-05-09T07:18:13.938Z,11.95
2024-05-09T07:20:42.028Z,12.21
2024-05-09T07:23:10.178Z,12.43
2024-05-09T07:25:37.938Z,12.59
2024-05-09T07:28:05.700Z,12.82
2024-05-09T07:30:34.567Z,12.94
2024-05-09T07:33:03.677Z,13.03
2024-05-09T07:35:31.521Z,13.22
2024-05-09T07:37:59.036Z,13.38
2024-05-09T07:40:33.193Z,13.55
2024-05-09T07:43:13.242Z,13.73
2024-05-09T07:45:50.409Z,13.88
2024-05-09T07:52:38.772Z,14.25
2024-05-09T07:53:49.995Z,14.38
2024-05-09T07:56:21.988Z,14.58
2024-05-09T07:58:52.099Z,14.78
2024-05-09T08:01:20.518Z,15.00
2024-05-09T08:03:48.596Z,15.15
2024-05-09T08:06:15.937Z,15.30
2024-05-09T08:08:43.151Z,15.39
2024-05-09T08:11:10.591Z,15.47
2024-05-09T08:13:37.824Z,15.57
2024-05-09T08:16:05.411Z,15.69
2024-05-09T08:18:33.311Z,15.92
2024-05-09T08:21:01.325Z,16.11
2024-05-09T08:23:28.916Z,16.17
2024-05-09T08:25:56.434Z,16.26
2024-05-09T08:28:23.732Z,16.26
2024-05-09T08:30:51.076Z,16.37
2024-05-09T08:33:18.535Z,16.42
2024-05-09T08:35:45.857Z,16.60
2024-05-09T08:38:13.192Z,16.83
2024-05-09T08:40:41.405Z,17.07
2024-05-09T08:43:11.542Z,17.39
2024-05-09T08:45:44.246Z,17.36
2024-05-09T08:48:15.137Z,17.45
2024-05-09T08:50:44.968Z,17.62
2024-05-09T08:53:14.559Z,17.71
2024-05-09T08:55:43.625Z,17.80
2024-05-09T08:58:19.245Z,17.79
2024-05-09T09:00:47.362Z,17.94
2024-05-09T09:03:17.186Z,18.14
2024-05-09T09:06:15.448Z,18.29
2024-05-09T09:08:43.561Z,18.31
2024-05-09T09:11:11.133Z,18.01
2024-05-09T09:13:38.575Z,17.71
2024-05-09T09:16:06.735Z,17.39
2024-05-09T09:18:34.521Z,17.17
2024-05-09T09:21:03.247Z,16.99
2024-05-09T09:23:30.876Z,16.94
2024-05-09T09:25:59.834Z,16.79
2024-05-09T09:28:27.152Z,16.77
2024-05-09T09:31:01.344Z,16.94
2024-05-09T09:33:31.492Z,17.03
2024-05-09T09:35:59.163Z,17.13
2024-05-09T09:38:29.290Z,17.23
2024-05-09T09:40:56.531Z,17.32
2024-05-09T09:43:24.208Z,17.28
2024-05-09T09:45:53.858Z,17.38
2024-05-09T09:48:22.178Z,17.52
2024-05-09T09:50:51.852Z,17.68
2024-05-09T09:53:19.768Z,17.73
2024-05-09T09:55:47.289Z,17.87
2024-05-09T09:58:16.944Z,17.88
2024-05-09T10:00:45.104Z,17.77
2024-05-09T10:03:12.992Z,17.61
2024-05-09T10:05:43.062Z,17.62
2024-05-09T10:08:13.043Z,17.81
2024-05-09T10:10:46.313Z,17.90
2024-05-09T10:13:13.886Z,18.09
2024-05-09T10:15:48.278Z,18.27
2024-05-09T10:18:15.972Z,18.40
2024-05-09T10:20:44.557Z,18.46
2024-05-09T10:23:26.936Z,18.61
2024-05-09T10:26:05.238Z,18.69
2024-05-09T10:28:36.888Z,18.87
2024-05-09T10:31:11.767Z,19.02
2024-05-09T10:33:51.165Z,19.18
2024-05-09T10:36:21.162Z,19.32
2024-05-09T10:38:49.621Z,19.29
2024-05-09T10:41:17.525Z,19.26
2024-05-09T10:43:44.930Z,19.18
2024-05-09T10:46:12.920Z,19.18
2024-05-09T10:48:42.735Z,19.19
2024-05-09T10:51:10.422Z,19.13
2024-05-09T10:53:44.603Z,19.15
2024-05-09T10:56:14.446Z,19.20
2024-05-09T10:58:42.012Z,19.21
2024-05-09T11:01:10.383Z,19.21
2024-05-09T11:03:39.006Z,19.26
2024-05-09T11:06:07.062Z,19.32
2024-05-09T11:08:35.141Z,19.33
2024-05-09T11:11:05.807Z,19.31
2024-05-09T11:13:34.707Z,19.27
2024-05-09T11:16:02.663Z,19.17
2024-05-09T11:18:35.157Z,19.08
2024-05-09T11:21:12.144Z,18.80
2024-05-09T11:23:39.554Z,18.67
2024-05-09T11:26:07.959Z,18.53
2024-05-09T11:28:35.236Z,18.18
2024-05-09T11:31:11.093Z,18.18
2024-05-09T11:33:48.035Z,18.14
2024-05-09T11:36:16.055Z,18.19
2024-05-09T11:38:43.419Z,18.36
2024-05-09T11:41:17.569Z,18.38
2024-05-09T11:43:44.854Z,18.51
2024-05-09T11:46:12.353Z,18.54
2024-05-09T11:48:40.164Z,18.76
2024-05-09T11:51:07.628Z,18.86
2024-05-09T11:53:34.944Z,18.87
2024-05-09T11:56:02.273Z,18.94
2024-05-09T11:58:34.264Z,18.96
2024-05-09T12:01:04.428Z,18.96
2024-05-09T12:03:31.913Z,18.95
2024-05-09T12:05:59.514Z,18.92
2024-05-09T12:08:26.904Z,18.90
2024-05-09T12:10:54.286Z,18.90
2024-05-09T12:13:21.678Z,18.91
2024-05-09T12:15:49.216Z,18.92
2024-05-09T12:18:16.586Z,18.97
2024-05-09T12:20:43.886Z,18.91
2024-05-09T12:23:11.221Z,18.96
2024-05-09T12:25:39.149Z,19.04
2024-05-09T12:28:07.530Z,19.07
2024-05-09T12:30:38.733Z,18.99
2024-05-09T12:33:12.115Z,18.90
2024-05-09T12:35:43.439Z,18.76
2024-05-09T12:38:13.634Z,18.69
2024-05-09T12:40:41.936Z,18.70
2024-05-09T12:43:10.598Z,18.75
2024-05-09T12:45:39.263Z,18.72
2024-05-09T12:48:11.666Z,18.73
2024-05-09T12:50:39.801Z,18.66
2024-05-09T12:53:07.219Z,18.52
2024-05-09T12:55:43.811Z,18.48
2024-05-09T12:58:19.877Z,18.36
2024-05-09T13:00:47.571Z,18.38
2024-05-09T13:03:15.200Z,18.43
2024-05-09T13:05:44.834Z,18.53
2024-05-09T13:08:13.361Z,18.61
2024-05-09T13:10:40.918Z,18.65
2024-05-09T13:13:11.626Z,18.69
2024-05-09T13:15:39.279Z,18.66
2024-05-09T13:18:06.870Z,18.64
2024-05-09T13:20:36.232Z,18.60
2024-05-09T13:23:05.786Z,18.65
2024-05-09T13:25:37.124Z,18.68
2024-05-09T13:28:05.807Z,18.66
2024-05-09T13:30:39.602Z,18.64
2024-05-09T13:33:11.507Z,18.70
2024-05-09T13:35:44.058Z,18.72
2024-05-09T13:38:14.860Z,18.73
2024-05-09T13:40:42.339Z,18.67
2024-05-09T13:43:09.762Z,18.70
2024-05-09T13:45:37.064Z,18.73
2024-05-09T13:48:06.710Z,18.71
2024-05-09T13:50:36.372Z,18.70
2024-05-09T13:53:06.563Z,18.65
2024-05-09T13:55:37.224Z,18.61
2024-05-09T13:58:04.864Z,18.60
2024-05-09T14:00:42.850Z,18.60
2024-05-09T14:03:15.428Z,18.63
2024-05-09T14:05:43.570Z,18.61
2024-05-09T14:08:11.355Z,18.67
2024-05-09T14:10:44.538Z,18.68
2024-05-09T14:13:13.647Z,18.73
2024-05-09T14:15:41.247Z,18.80
2024-05-09T14:18:12.659Z,18.77
2024-05-09T14:20:41.892Z,18.80
2024-05-09T14:23:09.331Z,18.79
2024-05-09T14:25:39.789Z,18.82
2024-05-09T14:28:09.942Z,18.83
2024-05-09T14:30:38.611Z,18.85
2024-05-09T14:33:07.920Z,18.91
2024-05-09T14:35:37.382Z,18.96
2024-05-09T14:38:05.043Z,19.05
2024-05-09T14:40:40.517Z,19.18
2024-05-09T14:43:11.885Z,19.27
2024-05-09T14:45:39.728Z,19.46
2024-05-09T14:48:07.686Z,19.55
2024-05-09T14:50:38.537Z,19.57
2024-05-09T14:53:11.819Z,19.70
2024-05-09T14:55:41.061Z,19.82
2024-05-09T14:58:10.384Z,19.89
2024-05-09T15:00:42.471Z,20.03
2024-05-09T15:03:13.044Z,20.17
2024-05-09T15:05:40.655Z,20.25
2024-05-09T15:08:09.586Z,20.27
2024-05-09T15:10:37.862Z,20.29
2024-05-09T15:13:07.915Z,20.36
2024-05-09T15:15:37.122Z,20.49
2024-05-09T15:18:05.714Z,20.49
2024-05-09T15:20:36.286Z,20.30
2024-05-09T15:23:05.540Z,20.05
2024-05-09T15:25:33.875Z,19.91
2024-05-09T15:28:01.390Z,19.75
2024-05-09T15:30:32.108Z,19.61
2024-05-09T15:33:04.093Z,19.49
2024-05-09T15:35:31.973Z,19.38
2024-05-09T15:37:59.840Z,19.31
2024-05-09T15:40:35.908Z,19.23
2024-05-09T15:43:07.647Z,19.16
2024-05-09T15:45:35.615Z,19.07
2024-05-09T15:48:03.794Z,18.98
2024-05-09T15:50:37.987Z,18.89
2024-05-09T15:53:09.880Z,18.77
2024-05-09T15:55:38.013Z,18.68
2024-05-09T15:58:06.421Z,18.59
2024-05-09T16:00:39.146Z,18.55
2024-05-09T16:03:10.488Z,18.47
2024-05-09T16:05:38.496Z,18.40
2024-05-09T16:08:06.746Z,18.40
2024-05-09T16:10:35.127Z,18.34
2024-05-09T16:13:04.127Z,18.29
2024-05-09T16:15:32.158Z,18.19
2024-05-09T16:18:00.427Z,18.13
2024-05-09T16:20:37.272Z,18.10
2024-05-09T16:23:08.566Z,18.09
2024-05-09T16:25:36.293Z,18.08
2024-05-09T16:28:07.059Z,18.05
2024-05-09T16:30:37.403Z,18.02
2024-05-09T16:33:05.653Z,17.98
2024-05-09T16:35:34.597Z,17.97
2024-05-09T16:38:03.057Z,17.91
2024-05-09T16:40:37.429Z,17.89
2024-05-09T16:43:09.088Z,17.85
2024-05-09T16:45:37.656Z,17.83
2024-05-09T16:48:06.896Z,17.79
2024-05-09T16:50:35.723Z,17.78
2024-05-09T16:53:04.894Z,17.79
2024-05-09T16:55:33.101Z,17.78
2024-05-09T16:58:01.259Z,17.76
2024-05-09T17:00:37.832Z,17.70
2024-05-09T17:03:10.295Z,17.70
2024-05-09T17:05:38.870Z,17.70
2024-05-09T17:08:06.823Z,17.66
2024-05-09T17:10:35.929Z,17.61
2024-05-09T17:13:05.103Z,17.61
2024-05-09T17:15:34.017Z,17.61
2024-05-09T17:18:02.053Z,17.58
2024-05-09T17:20:34.131Z,17.59
2024-05-09T17:23:04.988Z,17.54
2024-05-09T17:25:33.237Z,17.52
2024-05-09T17:28:06.801Z,17.51
2024-05-09T17:30:37.766Z,17.53
2024-05-09T17:33:08.891Z,17.52
2024-05-09T17:35:37.347Z,17.47
2024-05-09T17:38:05.611Z,17.42
2024-05-09T17:40:36.052Z,17.37
2024-05-09T17:43:06.668Z,17.34
2024-05-09T17:45:37.572Z,17.31
2024-05-09T17:48:06.149Z,17.26
2024-05-09T17:50:36.267Z,17.16
2024-05-09T17:53:05.639Z,17.17
2024-05-09T17:55:33.303Z,17.14
2024-05-09T17:58:01.059Z,17.14
2024-05-09T18:00:36.788Z,17.12
2024-05-09T18:03:08.224Z,17.05
2024-05-09T18:05:37.588Z,17.02
2024-05-09T18:08:08.581Z,16.96
2024-05-09T18:10:39.033Z,16.94
2024-05-09T18:13:08.473Z,16.89
2024-05-09T18:15:36.417Z,16.84
2024-05-09T18:18:04.606Z,16.79
2024-05-09T18:20:41.411Z,16.76
2024-05-09T18:23:17.110Z,16.70
2024-05-09T18:25:45.878Z,16.65
2024-05-09T18:28:13.700Z,16.60
2024-05-09T18:30:41.333Z,16.55
2024-05-09T18:33:10.676Z,16.49
2024-05-09T18:35:38.537Z,16.40
2024-05-09T18:38:06.044Z,16.32
2024-05-09T18:40:36.594Z,16.22
2024-05-09T18:43:07.627Z,16.10
2024-05-09T18:45:39.356Z,16.01
2024-05-09T18:48:08.497Z,15.91
2024-05-09T18:50:39.280Z,15.80
2024-05-09T18:53:12.722Z,15.73
2024-05-09T18:55:42.122Z,15.63
2024-05-09T18:58:09.517Z,15.52
2024-05-09T19:00:39.642Z,15.44
2024-05-09T19:03:11.751Z,15.36
2024-05-09T19:05:45.506Z,15.33
2024-05-09T19:08:14.570Z,15.24
2024-05-09T19:10:42.148Z,15.19
2024-05-09T19:13:12.584Z,15.11
2024-05-09T19:15:42.223Z,15.02
2024-05-09T19:18:11.720Z,14.96
2024-05-09T19:20:39.564Z,14.90
2024-05-09T19:23:07.550Z,14.84
2024-05-09T19:25:36.120Z,14.83
2024-05-09T19:28:04.727Z,14.81
2024-05-09T19:30:39.130Z,14.73
2024-05-09T19:33:10.588Z,14.69
2024-05-09T19:35:38.961Z,14.65
2024-05-09T19:38:06.440Z,14.61
2024-05-09T19:40:35.085Z,14.55
2024-05-09T19:43:05.014Z,14.51
2024-05-09T19:45:34.773Z,14.43
2024-05-09T19:48:03.280Z,14.36
2024-05-09T19:50:37.535Z,14.31
2024-05-09T19:53:10.672Z,14.25
2024-05-09T19:55:38.496Z,14.16
2024-05-09T19:58:07.119Z,14.06
2024-05-09T20:00:38.023Z,14.00
2024-05-09T20:03:07.866Z,13.94
2024-05-09T20:05:36.270Z,13.86
2024-05-09T20:08:04.144Z,13.80
2024-05-09T20:10:33.754Z,13.74
2024-05-09T20:13:03.792Z,13.60
2024-05-09T20:15:33.514Z,13.51
2024-05-09T20:18:01.079Z,13.46
2024-05-09T20:20:36.353Z,13.42
2024-05-09T20:23:07.552Z,13.36
2024-05-09T20:25:34.800Z,13.28
2024-05-09T20:28:02.133Z,13.17
2024-05-09T20:30:32.815Z,13.11
2024-05-09T20:33:03.053Z,13.08
2024-05-09T20:35:34.822Z,13.04
2024-05-09T20:38:03.518Z,12.97
2024-05-09T20:40:35.804Z,12.87
2024-05-09T20:43:07.102Z,12.79
2024-05-09T20:45:35.069Z,12.73
2024-05-09T20:48:02.853Z,12.70
2024-05-09T20:50:37.493Z,12.62
2024-05-09T20:53:15.407Z,12.55
2024-05-09T20:55:44.535Z,12.50
2024-05-09T20:58:12.699Z,12.47
2024-05-09T21:00:43.726Z,12.36
2024-05-09T21:03:14.872Z,12.27
2024-05-09T21:05:43.716Z,12.22
2024-05-09T21:08:11.050Z,12.17
2024-05-09T21:10:38.540Z,12.12
2024-05-09T21:13:07.266Z,12.09
2024-05-09T21:15:35.612Z,12.05
2024-05-09T21:18:03.680Z,12.00
2024-05-09T21:20:33.412Z,11.94
2024-05-09T21:23:01.621Z,11.88
2024-05-09T21:25:32.359Z,11.83
2024-05-09T21:28:00.324Z,11.82
2024-05-09T21:30:37.521Z,11.77
2024-05-09T21:33:10.971Z,11.75
2024-05-09T21:35:40.617Z,11.67
2024-05-09T21:38:08.129Z,11.64
2024-05-09T21:40:36.787Z,11.62
2024-05-09T21:43:06.458Z,11.61
2024-05-09T21:45:34.263Z,11.57
2024-05-09T21:48:05.250Z,11.51
2024-05-09T21:50:39.379Z,11.41
2024-05-09T21:53:12.713Z,11.35
2024-05-09T21:55:44.337Z,11.28
2024-05-09T21:58:13.087Z,11.28
2024-05-09T22:00:42.881Z,11.23
2024-05-09T22:03:11.631Z,11.14
2024-05-09T22:05:41.866Z,11.13
2024-05-09T22:08:09.732Z,11.07
2024-05-09T22:10:37.447Z,11.00
2024-05-09T22:13:06.037Z,10.95
2024-05-09T22:15:36.194Z,10.91
2024-05-09T22:18:05.443Z,10.87
2024-05-09T22:20:37.866Z,10.86
2024-05-09T22:23:07.777Z,10.80
2024-05-09T22:25:36.195Z,10.66
2024-05-09T22:28:03.833Z,10.60
2024-05-09T22:30:36.234Z,10.59
2024-05-09T22:33:11.022Z,10.59
2024-05-09T22:35:40.091Z,10.55
2024-05-09T22:38:07.515Z,10.53
2024-05-09T22:40:45.390Z,10.52
2024-05-09T22:43:21.233Z,10.47
2024-05-09T22:45:51.285Z,10.46
2024-05-09T22:48:19.082Z,10.45
2024-05-09T22:50:46.458Z,10.43
2024-05-09T22:53:14.189Z,10.43
2024-05-09T22:55:41.684Z,10.43
2024-05-09T22:58:09.266Z,10.44
2024-05-09T23:00:36.632Z,10.39
2024-05-09T23:03:04.055Z,10.28
2024-05-09T23:05:32.607Z,10.26
2024-05-09T23:08:03.190Z,10.21
2024-05-09T23:10:36.038Z,10.22
2024-05-09T23:13:06.806Z,10.18
2024-05-09T23:15:34.886Z,10.09
2024-05-09T23:18:02.441Z,10.06
2024-05-09T23:20:36.770Z,10.04
2024-05-09T23:23:07.364Z,10.03
2024-05-09T23:25:35.021Z,10.01
2024-05-09T23:28:02.617Z,10.00
2024-05-09T23:30:37.353Z,9.99
2024-05-09T23:33:09.042Z,9.97
2024-05-09T23:35:36.602Z,9.94
2024-05-09T23:38:04.398Z,9.91
2024-05-09T23:43:02.664Z,9.89
2024-05-09T23:45:29.986Z,9.87
2024-05-09T23:47:57.746Z,9.88
2024-05-09T23:50:33.232Z,9.88
2024-05-09T23:53:03.713Z,9.90
2024-05-09T23:55:31.795Z,9.89
2024-05-09T23:57:59.850Z,9.83
